sensor_id;sensor_type;location;lat;lon;timestamp;P1;durP1;ratioP1;P2;durP2;ratioP2
46777;SDS011;32536;47.128;8.746;2022-12-07T00:01:34;4.45;;;2.47;;
46777;SDS011;32536;47.128;8.746;2022-12-07T00:04:04;4.40;;;2.22;;
46777;SDS011;32536;47.128;8.746;2022-12-07T00:06:35;4.95;;;2.42;;
46777;SDS011;32536;47.128;8.746;2022-12-07T00:09:08;6.93;;;4.28;;
46777;SDS011;32536;47.128;8.746;2022-12-07T00:11:40;7.07;;;4.05;;
46777;SDS011;32536;47.128;8.746;2022-12-07T00:14:10;5.80;;;3.20;;
46777;SDS011;32536;47.128;8.746;2022-12-07T00:16:40;5.38;;;2.22;;
46777;SDS011;32536;47.128;8.746;2022-12-07T00:19:07;7.10;;;3.45;;
46777;SDS011;32536;47.128;8.746;2022-12-07T00:21:35;5.22;;;2.38;;
46777;SDS011;32536;47.128;8.746;2022-12-07T00:24:03;7.03;;;3.97;;
46777;SDS011;32536;47.128;8.746;2022-12-07T00:26:35;4.47;;;2.83;;
46777;SDS011;32536;47.128;8.746;2022-12-07T00:29:06;5.88;;;3.13;;
46777;SDS011;32536;47.128;8.746;2022-12-07T00:31:42;5.43;;;3.10;;
46777;SDS011;32536;47.128;8.746;2022-12-07T00:34:13;5.70;;;3.30;;
46777;SDS011;32536;47.128;8.746;2022-12-07T00:36:43;6.70;;;4.20;;
46777;SDS011;32536;47.128;8.746;2022-12-07T00:39:10;4.72;;;2.53;;
46777;SDS011;32536;47.128;8.746;2022-12-07T00:41:36;4.68;;;2.42;;
46777;SDS011;32536;47.128;8.746;2022-12-07T00:44:03;5.40;;;1.90;;
46777;SDS011;32536;47.128;8.746;2022-12-07T00:46:30;4.70;;;2.88;;
46777;SDS011;32536;47.128;8.746;2022-12-07T00:48:57;4.72;;;2.35;;
46777;SDS011;32536;47.128;8.746;2022-12-07T00:51:24;5.25;;;3.00;;
46777;SDS011;32536;47.128;8.746;2022-12-07T00:53:52;4.45;;;2.05;;
46777;SDS011;32536;47.128;8.746;2022-12-07T00:56:20;3.72;;;1.45;;
46777;SDS011;32536;47.128;8.746;2022-12-07T00:58:53;5.32;;;3.17;;
46777;SDS011;32536;47.128;8.746;2022-12-07T01:01:23;4.78;;;2.22;;
46777;SDS011;32536;47.128;8.746;2022-12-07T01:03:53;3.60;;;2.03;;
46777;SDS011;32536;47.128;8.746;2022-12-07T01:06:20;3.58;;;2.47;;
46777;SDS011;32536;47.128;8.746;2022-12-07T01:08:48;3.80;;;1.98;;
46777;SDS011;32536;47.128;8.746;2022-12-07T01:11:17;4.55;;;2.45;;
46777;SDS011;32536;47.128;8.746;2022-12-07T01:13:50;3.50;;;2.67;;
46777;SDS011;32536;47.128;8.746;2022-12-07T01:16:18;3.92;;;2.05;;
46777;SDS011;32536;47.128;8.746;2022-12-07T01:18:47;4.75;;;3.25;;
46777;SDS011;32536;47.128;8.746;2022-12-07T01:21:18;4.28;;;2.75;;
46777;SDS011;32536;47.128;8.746;2022-12-07T01:23:58;4.32;;;2.58;;
46777;SDS011;32536;47.128;8.746;2022-12-07T01:26:25;2.92;;;1.52;;
46777;SDS011;32536;47.128;8.746;2022-12-07T01:28:52;2.85;;;1.52;;
46777;SDS011;32536;47.128;8.746;2022-12-07T01:31:21;4.85;;;2.50;;
46777;SDS011;32536;47.128;8.746;2022-12-07T01:33:51;2.60;;;1.20;;
46777;SDS011;32536;47.128;8.746;2022-12-07T01:36:23;5.38;;;3.20;;
46777;SDS011;32536;47.128;8.746;2022-12-07T01:38:54;6.15;;;3.92;;
46777;SDS011;32536;47.128;8.746;2022-12-07T01:41:25;5.75;;;3.22;;
46777;SDS011;32536;47.128;8.746;2022-12-07T01:46:50;5.22;;;2.63;;
46777;SDS011;32536;47.128;8.746;2022-12-07T01:49:46;4.45;;;2.25;;
46777;SDS011;32536;47.128;8.746;2022-12-07T01:52:26;4.50;;;2.85;;
46777;SDS011;32536;47.128;8.746;2022-12-07T01:54:58;4.60;;;2.70;;
46777;SDS011;32536;47.128;8.746;2022-12-07T01:57:35;4.70;;;2.90;;
46777;SDS011;32536;47.128;8.746;2022-12-07T02:00:07;3.95;;;1.92;;
46777;SDS011;32536;47.128;8.746;2022-12-07T02:02:43;4.40;;;2.97;;
46777;SDS011;32536;47.128;8.746;2022-12-07T02:08:10;4.57;;;2.40;;
46777;SDS011;32536;47.128;8.746;2022-12-07T02:10:38;3.40;;;2.50;;
46777;SDS011;32536;47.128;8.746;2022-12-07T02:13:08;4.28;;;2.42;;
46777;SDS011;32536;47.128;8.746;2022-12-07T02:16:09;3.60;;;1.55;;
46777;SDS011;32536;47.128;8.746;2022-12-07T02:22:40;3.17;;;2.50;;
46777;SDS011;32536;47.128;8.746;2022-12-07T02:28:29;3.00;;;2.38;;
46777;SDS011;32536;47.128;8.746;2022-12-07T02:31:02;2.45;;;1.95;;
46777;SDS011;32536;47.128;8.746;2022-12-07T02:33:39;2.75;;;1.20;;
46777;SDS011;32536;47.128;8.746;2022-12-07T02:36:21;3.35;;;1.98;;
46777;SDS011;32536;47.128;8.746;2022-12-07T02:38:55;3.15;;;2.25;;
46777;SDS011;32536;47.128;8.746;2022-12-07T02:41:55;3.03;;;1.83;;
46777;SDS011;32536;47.128;8.746;2022-12-07T02:44:28;2.85;;;1.88;;
46777;SDS011;32536;47.128;8.746;2022-12-07T02:46:59;4.25;;;3.05;;
46777;SDS011;32536;47.128;8.746;2022-12-07T02:49:30;3.03;;;2.08;;
46777;SDS011;32536;47.128;8.746;2022-12-07T02:51:57;3.00;;;2.15;;
46777;SDS011;32536;47.128;8.746;2022-12-07T02:54:24;2.95;;;1.67;;
46777;SDS011;32536;47.128;8.746;2022-12-07T03:00:04;2.45;;;1.85;;
46777;SDS011;32536;47.128;8.746;2022-12-07T03:14:19;3.80;;;1.75;;
46777;SDS011;32536;47.128;8.746;2022-12-07T03:19:39;4.35;;;2.55;;
46777;SDS011;32536;47.128;8.746;2022-12-07T03:22:09;2.85;;;2.45;;
46777;SDS011;32536;47.128;8.746;2022-12-07T03:24:46;2.88;;;1.55;;
46777;SDS011;32536;47.128;8.746;2022-12-07T03:27:21;3.50;;;1.60;;
46777;SDS011;32536;47.128;8.746;2022-12-07T03:29:54;3.20;;;2.05;;
46777;SDS011;32536;47.128;8.746;2022-12-07T03:32:48;3.53;;;2.75;;
46777;SDS011;32536;47.128;8.746;2022-12-07T03:35:36;4.75;;;3.35;;
46777;SDS011;32536;47.128;8.746;2022-12-07T03:38:25;3.28;;;2.47;;
46777;SDS011;32536;47.128;8.746;2022-12-07T03:41:05;2.95;;;2.30;;
46777;SDS011;32536;47.128;8.746;2022-12-07T03:43:37;3.22;;;2.45;;
46777;SDS011;32536;47.128;8.746;2022-12-07T03:56:57;3.45;;;1.60;;
46777;SDS011;32536;47.128;8.746;2022-12-07T03:59:25;2.65;;;1.52;;
46777;SDS011;32536;47.128;8.746;2022-12-07T04:01:57;2.63;;;2.13;;
46777;SDS011;32536;47.128;8.746;2022-12-07T04:04:29;3.03;;;2.30;;
46777;SDS011;32536;47.128;8.746;2022-12-07T04:06:56;2.88;;;2.03;;
46777;SDS011;32536;47.128;8.746;2022-12-07T04:09:23;1.88;;;1.13;;
46777;SDS011;32536;47.128;8.746;2022-12-07T04:11:50;3.28;;;2.42;;
46777;SDS011;32536;47.128;8.746;2022-12-07T04:14:17;2.90;;;2.00;;
46777;SDS011;32536;47.128;8.746;2022-12-07T04:16:54;2.55;;;1.73;;
46777;SDS011;32536;47.128;8.746;2022-12-07T04:19:24;3.08;;;2.05;;
46777;SDS011;32536;47.128;8.746;2022-12-07T04:21:57;3.15;;;2.85;;
46777;SDS011;32536;47.128;8.746;2022-12-07T04:24:26;2.90;;;1.88;;
46777;SDS011;32536;47.128;8.746;2022-12-07T04:26:53;2.78;;;1.20;;
46777;SDS011;32536;47.128;8.746;2022-12-07T04:29:20;3.42;;;2.05;;
46777;SDS011;32536;47.128;8.746;2022-12-07T04:31:47;3.90;;;2.70;;
46777;SDS011;32536;47.128;8.746;2022-12-07T04:34:15;4.50;;;3.00;;
46777;SDS011;32536;47.128;8.746;2022-12-07T04:36:43;3.45;;;1.45;;
46777;SDS011;32536;47.128;8.746;2022-12-07T04:39:18;3.83;;;2.67;;
46777;SDS011;32536;47.128;8.746;2022-12-07T04:41:51;3.35;;;3.05;;
46777;SDS011;32536;47.128;8.746;2022-12-07T04:44:19;3.72;;;2.72;;
46777;SDS011;32536;47.128;8.746;2022-12-07T04:46:47;3.33;;;2.58;;
46777;SDS011;32536;47.128;8.746;2022-12-07T04:49:15;3.13;;;2.55;;
46777;SDS011;32536;47.128;8.746;2022-12-07T04:51:42;3.58;;;2.28;;
46777;SDS011;32536;47.128;8.746;2022-12-07T04:54:10;3.50;;;2.55;;
46777;SDS011;32536;47.128;8.746;2022-12-07T04:56:39;2.88;;;1.77;;
46777;SDS011;32536;47.128;8.746;2022-12-07T04:59:06;2.25;;;1.42;;
46777;SDS011;32536;47.128;8.746;2022-12-07T05:01:34;2.78;;;2.20;;
46777;SDS011;32536;47.128;8.746;2022-12-07T05:04:01;3.80;;;2.05;;
46777;SDS011;32536;47.128;8.746;2022-12-07T05:06:28;4.97;;;2.80;;
46777;SDS011;32536;47.128;8.746;2022-12-07T05:08:55;3.38;;;2.80;;
46777;SDS011;32536;47.128;8.746;2022-12-07T05:11:22;3.90;;;3.03;;
46777;SDS011;32536;47.128;8.746;2022-12-07T05:14:04;3.17;;;2.28;;
46777;SDS011;32536;47.128;8.746;2022-12-07T05:16:43;2.25;;;1.58;;
46777;SDS011;32536;47.128;8.746;2022-12-07T05:19:13;3.38;;;2.08;;
46777;SDS011;32536;47.128;8.746;2022-12-07T05:21:40;4.32;;;2.85;;
46777;SDS011;32536;47.128;8.746;2022-12-07T05:24:07;3.72;;;2.35;;
46777;SDS011;32536;47.128;8.746;2022-12-07T05:26:36;6.28;;;3.28;;
46777;SDS011;32536;47.128;8.746;2022-12-07T05:29:03;4.93;;;2.92;;
46777;SDS011;32536;47.128;8.746;2022-12-07T05:31:31;5.00;;;2.30;;
46777;SDS011;32536;47.128;8.746;2022-12-07T05:33:57;5.20;;;3.13;;
46777;SDS011;32536;47.128;8.746;2022-12-07T05:36:24;4.47;;;2.70;;
46777;SDS011;32536;47.128;8.746;2022-12-07T05:38:54;5.03;;;3.33;;
46777;SDS011;32536;47.128;8.746;2022-12-07T05:41:20;8.05;;;4.35;;
46777;SDS011;32536;47.128;8.746;2022-12-07T05:44:06;10.98;;;4.30;;
46777;SDS011;32536;47.128;8.746;2022-12-07T05:46:33;9.38;;;4.90;;
46777;SDS011;32536;47.128;8.746;2022-12-07T05:49:00;5.85;;;2.60;;
46777;SDS011;32536;47.128;8.746;2022-12-07T05:51:27;6.65;;;2.63;;
46777;SDS011;32536;47.128;8.746;2022-12-07T05:53:54;5.80;;;2.40;;
46777;SDS011;32536;47.128;8.746;2022-12-07T05:56:21;5.38;;;3.42;;
46777;SDS011;32536;47.128;8.746;2022-12-07T05:58:48;5.00;;;3.75;;
46777;SDS011;32536;47.128;8.746;2022-12-07T06:01:33;5.07;;;2.47;;
46777;SDS011;32536;47.128;8.746;2022-12-07T06:04:00;3.75;;;2.53;;
46777;SDS011;32536;47.128;8.746;2022-12-07T06:06:27;4.65;;;1.83;;
46777;SDS011;32536;47.128;8.746;2022-12-07T06:08:54;3.78;;;1.92;;
46777;SDS011;32536;47.128;8.746;2022-12-07T06:11:20;3.70;;;1.95;;
46777;SDS011;32536;47.128;8.746;2022-12-07T06:14:05;6.07;;;3.85;;
46777;SDS011;32536;47.128;8.746;2022-12-07T06:16:32;5.93;;;2.75;;
46777;SDS011;32536;47.128;8.746;2022-12-07T06:18:59;6.80;;;4.13;;
46777;SDS011;32536;47.128;8.746;2022-12-07T06:21:26;6.15;;;3.67;;
46777;SDS011;32536;47.128;8.746;2022-12-07T06:23:53;4.55;;;2.00;;
46777;SDS011;32536;47.128;8.746;2022-12-07T06:26:20;4.68;;;2.92;;
46777;SDS011;32536;47.128;8.746;2022-12-07T06:28:48;3.80;;;3.00;;
46777;SDS011;32536;47.128;8.746;2022-12-07T06:31:14;4.35;;;1.80;;
46777;SDS011;32536;47.128;8.746;2022-12-07T06:33:41;4.53;;;3.13;;
46777;SDS011;32536;47.128;8.746;2022-12-07T06:36:09;5.53;;;4.05;;
46777;SDS011;32536;47.128;8.746;2022-12-07T06:38:36;6.47;;;3.97;;
46777;SDS011;32536;47.128;8.746;2022-12-07T06:41:03;6.38;;;3.08;;
46777;SDS011;32536;47.128;8.746;2022-12-07T06:43:30;4.43;;;2.38;;
46777;SDS011;32536;47.128;8.746;2022-12-07T06:45:57;4.72;;;2.97;;
46777;SDS011;32536;47.128;8.746;2022-12-07T06:48:24;6.57;;;3.88;;
46777;SDS011;32536;47.128;8.746;2022-12-07T06:50:51;3.97;;;3.00;;
46777;SDS011;32536;47.128;8.746;2022-12-07T06:53:17;4.72;;;2.70;;
46777;SDS011;32536;47.128;8.746;2022-12-07T06:55:44;3.88;;;3.17;;
46777;SDS011;32536;47.128;8.746;2022-12-07T06:58:11;3.38;;;1.50;;
46777;SDS011;32536;47.128;8.746;2022-12-07T07:00:37;3.72;;;2.78;;
46777;SDS011;32536;47.128;8.746;2022-12-07T07:03:04;4.43;;;2.67;;
46777;SDS011;32536;47.128;8.746;2022-12-07T07:08:28;5.85;;;2.60;;
46777;SDS011;32536;47.128;8.746;2022-12-07T07:10:54;6.53;;;2.97;;
46777;SDS011;32536;47.128;8.746;2022-12-07T07:13:21;4.65;;;2.65;;
46777;SDS011;32536;47.128;8.746;2022-12-07T07:15:48;4.93;;;3.60;;
46777;SDS011;32536;47.128;8.746;2022-12-07T07:18:15;4.85;;;3.05;;
46777;SDS011;32536;47.128;8.746;2022-12-07T07:20:41;5.05;;;3.40;;
46777;SDS011;32536;47.128;8.746;2022-12-07T07:23:08;5.53;;;2.92;;
46777;SDS011;32536;47.128;8.746;2022-12-07T07:25:35;7.47;;;3.08;;
46777;SDS011;32536;47.128;8.746;2022-12-07T07:28:02;7.70;;;3.08;;
46777;SDS011;32536;47.128;8.746;2022-12-07T07:30:30;10.65;;;5.20;;
46777;SDS011;32536;47.128;8.746;2022-12-07T07:33:00;8.88;;;4.50;;
46777;SDS011;32536;47.128;8.746;2022-12-07T07:35:30;8.02;;;4.47;;
46777;SDS011;32536;47.128;8.746;2022-12-07T07:37:59;8.75;;;4.80;;
46777;SDS011;32536;47.128;8.746;2022-12-07T07:40:27;9.35;;;6.10;;
46777;SDS011;32536;47.128;8.746;2022-12-07T07:42:57;7.05;;;4.18;;
46777;SDS011;32536;47.128;8.746;2022-12-07T07:45:24;7.97;;;4.60;;
46777;SDS011;32536;47.128;8.746;2022-12-07T07:47:52;7.47;;;4.25;;
46777;SDS011;32536;47.128;8.746;2022-12-07T07:50:19;10.32;;;5.20;;
46777;SDS011;32536;47.128;8.746;2022-12-07T07:52:47;6.97;;;4.18;;
46777;SDS011;32536;47.128;8.746;2022-12-07T07:55:13;8.27;;;4.95;;
46777;SDS011;32536;47.128;8.746;2022-12-07T07:57:40;8.80;;;3.30;;
46777;SDS011;32536;47.128;8.746;2022-12-07T08:00:08;8.30;;;5.22;;
46777;SDS011;32536;47.128;8.746;2022-12-07T08:02:39;8.15;;;4.80;;
46777;SDS011;32536;47.128;8.746;2022-12-07T08:05:08;6.88;;;4.85;;
46777;SDS011;32536;47.128;8.746;2022-12-07T08:07:37;8.57;;;4.95;;
46777;SDS011;32536;47.128;8.746;2022-12-07T08:10:04;9.18;;;4.32;;
46777;SDS011;32536;47.128;8.746;2022-12-07T08:12:35;7.20;;;4.32;;
46777;SDS011;32536;47.128;8.746;2022-12-07T08:15:24;10.60;;;3.75;;
46777;SDS011;32536;47.128;8.746;2022-12-07T08:17:52;8.43;;;5.13;;
46777;SDS011;32536;47.128;8.746;2022-12-07T08:20:19;6.65;;;3.38;;
46777;SDS011;32536;47.128;8.746;2022-12-07T08:22:46;7.38;;;3.55;;
46777;SDS011;32536;47.128;8.746;2022-12-07T08:25:13;7.28;;;4.60;;
46777;SDS011;32536;47.128;8.746;2022-12-07T08:27:40;7.72;;;4.13;;
46777;SDS011;32536;47.128;8.746;2022-12-07T08:30:07;7.22;;;3.42;;
46777;SDS011;32536;47.128;8.746;2022-12-07T08:32:34;8.45;;;4.57;;
46777;SDS011;32536;47.128;8.746;2022-12-07T08:35:00;7.03;;;3.97;;
46777;SDS011;32536;47.128;8.746;2022-12-07T08:37:27;6.82;;;3.28;;
46777;SDS011;32536;47.128;8.746;2022-12-07T08:39:54;9.10;;;5.40;;
46777;SDS011;32536;47.128;8.746;2022-12-07T08:42:21;7.35;;;3.63;;
46777;SDS011;32536;47.128;8.746;2022-12-07T08:44:48;9.38;;;4.60;;
46777;SDS011;32536;47.128;8.746;2022-12-07T08:47:15;9.05;;;4.93;;
46777;SDS011;32536;47.128;8.746;2022-12-07T08:49:43;10.07;;;4.70;;
46777;SDS011;32536;47.128;8.746;2022-12-07T08:52:13;8.00;;;3.63;;
46777;SDS011;32536;47.128;8.746;2022-12-07T08:54:40;6.78;;;3.15;;
46777;SDS011;32536;47.128;8.746;2022-12-07T08:57:08;7.57;;;4.80;;
46777;SDS011;32536;47.128;8.746;2022-12-07T08:59:37;7.90;;;3.63;;
46777;SDS011;32536;47.128;8.746;2022-12-07T09:02:04;7.40;;;4.25;;
46777;SDS011;32536;47.128;8.746;2022-12-07T09:04:32;7.07;;;3.60;;
46777;SDS011;32536;47.128;8.746;2022-12-07T09:06:59;7.43;;;4.55;;
46777;SDS011;32536;47.128;8.746;2022-12-07T09:09:25;4.85;;;3.03;;
46777;SDS011;32536;47.128;8.746;2022-12-07T09:11:52;5.22;;;2.60;;
46777;SDS011;32536;47.128;8.746;2022-12-07T09:14:19;5.72;;;2.38;;
46777;SDS011;32536;47.128;8.746;2022-12-07T09:16:46;4.55;;;2.75;;
46777;SDS011;32536;47.128;8.746;2022-12-07T09:19:12;7.70;;;4.28;;
46777;SDS011;32536;47.128;8.746;2022-12-07T09:21:39;7.47;;;3.63;;
46777;SDS011;32536;47.128;8.746;2022-12-07T09:24:06;5.60;;;3.40;;
46777;SDS011;32536;47.128;8.746;2022-12-07T09:26:34;4.43;;;2.53;;
46777;SDS011;32536;47.128;8.746;2022-12-07T09:29:02;7.32;;;3.42;;
46777;SDS011;32536;47.128;8.746;2022-12-07T09:31:29;6.88;;;3.88;;
46777;SDS011;32536;47.128;8.746;2022-12-07T09:33:57;10.68;;;6.40;;
46777;SDS011;32536;47.128;8.746;2022-12-07T09:36:26;11.00;;;5.68;;
46777;SDS011;32536;47.128;8.746;2022-12-07T09:38:53;12.23;;;5.85;;
46777;SDS011;32536;47.128;8.746;2022-12-07T09:41:21;7.63;;;4.22;;
46777;SDS011;32536;47.128;8.746;2022-12-07T09:43:49;6.57;;;4.15;;
46777;SDS011;32536;47.128;8.746;2022-12-07T09:46:17;6.47;;;3.33;;
46777;SDS011;32536;47.128;8.746;2022-12-07T09:48:46;9.88;;;4.90;;
46777;SDS011;32536;47.128;8.746;2022-12-07T09:51:19;10.18;;;4.95;;
46777;SDS011;32536;47.128;8.746;2022-12-07T09:53:48;9.02;;;5.50;;
46777;SDS011;32536;47.128;8.746;2022-12-07T09:56:17;12.95;;;6.38;;
46777;SDS011;32536;47.128;8.746;2022-12-07T09:58:46;9.18;;;4.03;;
46777;SDS011;32536;47.128;8.746;2022-12-07T10:01:14;7.82;;;4.40;;
46777;SDS011;32536;47.128;8.746;2022-12-07T10:06:34;9.60;;;5.25;;
46777;SDS011;32536;47.128;8.746;2022-12-07T10:09:00;5.63;;;3.15;;
46777;SDS011;32536;47.128;8.746;2022-12-07T10:11:33;5.78;;;2.92;;
46777;SDS011;32536;47.128;8.746;2022-12-07T10:14:10;6.03;;;3.30;;
46777;SDS011;32536;47.128;8.746;2022-12-07T10:16:40;3.88;;;2.60;;
46777;SDS011;32536;47.128;8.746;2022-12-07T10:22:09;3.95;;;2.38;;
46777;SDS011;32536;47.128;8.746;2022-12-07T10:24:40;5.85;;;2.72;;
46777;SDS011;32536;47.128;8.746;2022-12-07T10:27:26;5.65;;;2.88;;
46777;SDS011;32536;47.128;8.746;2022-12-07T10:29:57;5.25;;;2.78;;
46777;SDS011;32536;47.128;8.746;2022-12-07T10:37:56;4.82;;;3.05;;
46777;SDS011;32536;47.128;8.746;2022-12-07T10:43:00;4.72;;;2.83;;
46777;SDS011;32536;47.128;8.746;2022-12-07T10:48:22;6.05;;;2.67;;
46777;SDS011;32536;47.128;8.746;2022-12-07T10:56:53;4.10;;;1.92;;
46777;SDS011;32536;47.128;8.746;2022-12-07T10:59:50;5.55;;;2.92;;
46777;SDS011;32536;47.128;8.746;2022-12-07T11:02:36;5.63;;;2.58;;
46777;SDS011;32536;47.128;8.746;2022-12-07T11:08:47;5.22;;;3.03;;
46777;SDS011;32536;47.128;8.746;2022-12-07T11:11:33;4.13;;;1.55;;
46777;SDS011;32536;47.128;8.746;2022-12-07T11:14:03;5.85;;;3.13;;
46777;SDS011;32536;47.128;8.746;2022-12-07T11:17:09;5.80;;;3.55;;
46777;SDS011;32536;47.128;8.746;2022-12-07T11:23:21;5.35;;;2.80;;
46777;SDS011;32536;47.128;8.746;2022-12-07T11:37:09;4.32;;;2.72;;
46777;SDS011;32536;47.128;8.746;2022-12-07T11:39:52;3.00;;;2.05;;
46777;SDS011;32536;47.128;8.746;2022-12-07T11:42:33;3.58;;;1.63;;
46777;SDS011;32536;47.128;8.746;2022-12-07T11:45:22;6.40;;;3.63;;
46777;SDS011;32536;47.128;8.746;2022-12-07T11:48:09;3.90;;;2.50;;
46777;SDS011;32536;47.128;8.746;2022-12-07T11:51:04;4.70;;;2.05;;
46777;SDS011;32536;47.128;8.746;2022-12-07T11:53:46;3.33;;;1.67;;
46777;SDS011;32536;47.128;8.746;2022-12-07T12:01:42;4.13;;;2.55;;
46777;SDS011;32536;47.128;8.746;2022-12-07T12:07:00;3.50;;;2.63;;
46777;SDS011;32536;47.128;8.746;2022-12-07T12:09:32;3.38;;;2.35;;
46777;SDS011;32536;47.128;8.746;2022-12-07T12:12:12;2.63;;;1.23;;
46777;SDS011;32536;47.128;8.746;2022-12-07T12:22:06;3.35;;;2.50;;
46777;SDS011;32536;47.128;8.746;2022-12-07T12:24:43;3.78;;;3.45;;
46777;SDS011;32536;47.128;8.746;2022-12-07T12:27:26;3.20;;;2.40;;
46777;SDS011;32536;47.128;8.746;2022-12-07T12:29:59;2.85;;;2.17;;
46777;SDS011;32536;47.128;8.746;2022-12-07T12:38:47;4.10;;;2.42;;
46777;SDS011;32536;47.128;8.746;2022-12-07T12:41:01;3.03;;;1.98;;
46777;SDS011;32536;47.128;8.746;2022-12-07T12:54:37;4.03;;;2.53;;
46777;SDS011;32536;47.128;8.746;2022-12-07T13:02:28;3.97;;;3.22;;
46777;SDS011;32536;47.128;8.746;2022-12-07T13:10:37;4.40;;;2.90;;
46777;SDS011;32536;47.128;8.746;2022-12-07T13:15:41;3.67;;;1.73;;
46777;SDS011;32536;47.128;8.746;2022-12-07T13:18:25;3.75;;;2.30;;
46777;SDS011;32536;47.128;8.746;2022-12-07T13:31:49;2.42;;;1.60;;
46777;SDS011;32536;47.128;8.746;2022-12-07T13:34:30;3.20;;;1.55;;
46777;SDS011;32536;47.128;8.746;2022-12-07T13:37:00;4.20;;;2.35;;
46777;SDS011;32536;47.128;8.746;2022-12-07T13:39:56;4.05;;;1.90;;
46777;SDS011;32536;47.128;8.746;2022-12-07T13:42:29;3.75;;;2.22;;
46777;SDS011;32536;47.128;8.746;2022-12-07T13:44:59;6.05;;;3.92;;
46777;SDS011;32536;47.128;8.746;2022-12-07T13:47:53;4.22;;;1.80;;
46777;SDS011;32536;47.128;8.746;2022-12-07T13:53:00;4.55;;;3.05;;
46777;SDS011;32536;47.128;8.746;2022-12-07T13:55:33;4.82;;;2.45;;
46777;SDS011;32536;47.128;8.746;2022-12-07T13:58:00;3.85;;;1.92;;
46777;SDS011;32536;47.128;8.746;2022-12-07T14:00:27;4.25;;;1.95;;
46777;SDS011;32536;47.128;8.746;2022-12-07T14:03:42;5.07;;;2.95;;
46777;SDS011;32536;47.128;8.746;2022-12-07T14:05:43;4.25;;;3.08;;
46777;SDS011;32536;47.128;8.746;2022-12-07T14:10:52;4.43;;;2.65;;
46777;SDS011;32536;47.128;8.746;2022-12-07T14:13:32;3.40;;;1.95;;
46777;SDS011;32536;47.128;8.746;2022-12-07T14:19:01;3.55;;;1.73;;
46777;SDS011;32536;47.128;8.746;2022-12-07T14:21:32;4.97;;;3.15;;
46777;SDS011;32536;47.128;8.746;2022-12-07T14:31:54;5.72;;;3.28;;
46777;SDS011;32536;47.128;8.746;2022-12-07T14:34:23;5.53;;;3.53;;
46777;SDS011;32536;47.128;8.746;2022-12-07T14:36:50;4.03;;;2.63;;
46777;SDS011;32536;47.128;8.746;2022-12-07T14:39:17;4.53;;;2.10;;
46777;SDS011;32536;47.128;8.746;2022-12-07T14:41:44;5.22;;;2.17;;
46777;SDS011;32536;47.128;8.746;2022-12-07T14:44:20;5.25;;;3.25;;
46777;SDS011;32536;47.128;8.746;2022-12-07T14:46:49;5.13;;;3.38;;
46777;SDS011;32536;47.128;8.746;2022-12-07T14:49:16;4.00;;;2.05;;
46777;SDS011;32536;47.128;8.746;2022-12-07T14:51:44;4.72;;;2.72;;
46777;SDS011;32536;47.128;8.746;2022-12-07T14:54:14;5.18;;;2.25;;
46777;SDS011;32536;47.128;8.746;2022-12-07T14:56:44;5.20;;;2.50;;
46777;SDS011;32536;47.128;8.746;2022-12-07T14:59:15;5.70;;;3.25;;
46777;SDS011;32536;47.128;8.746;2022-12-07T15:01:44;4.63;;;2.53;;
46777;SDS011;32536;47.128;8.746;2022-12-07T15:04:11;6.47;;;3.35;;
46777;SDS011;32536;47.128;8.746;2022-12-07T15:06:38;4.15;;;2.53;;
46777;SDS011;32536;47.128;8.746;2022-12-07T15:09:05;4.55;;;2.40;;
46777;SDS011;32536;47.128;8.746;2022-12-07T15:11:32;3.90;;;2.85;;
46777;SDS011;32536;47.128;8.746;2022-12-07T15:13:59;5.03;;;2.50;;
46777;SDS011;32536;47.128;8.746;2022-12-07T15:16:37;5.07;;;2.70;;
46777;SDS011;32536;47.128;8.746;2022-12-07T15:19:10;3.95;;;3.20;;
46777;SDS011;32536;47.128;8.746;2022-12-07T15:21:41;4.75;;;2.63;;
46777;SDS011;32536;47.128;8.746;2022-12-07T15:24:11;4.32;;;2.63;;
46777;SDS011;32536;47.128;8.746;2022-12-07T15:26:39;4.45;;;2.90;;
46777;SDS011;32536;47.128;8.746;2022-12-07T15:29:07;5.18;;;2.50;;
46777;SDS011;32536;47.128;8.746;2022-12-07T15:31:34;4.75;;;2.63;;
46777;SDS011;32536;47.128;8.746;2022-12-07T15:34:02;4.07;;;2.53;;
46777;SDS011;32536;47.128;8.746;2022-12-07T15:36:30;4.70;;;2.05;;
46777;SDS011;32536;47.128;8.746;2022-12-07T15:38:58;4.63;;;2.58;;
46777;SDS011;32536;47.128;8.746;2022-12-07T15:41:26;3.78;;;1.92;;
46777;SDS011;32536;47.128;8.746;2022-12-07T15:43:53;5.50;;;3.10;;
46777;SDS011;32536;47.128;8.746;2022-12-07T15:46:46;5.10;;;2.67;;
46777;SDS011;32536;47.128;8.746;2022-12-07T15:49:14;4.05;;;2.50;;
46777;SDS011;32536;47.128;8.746;2022-12-07T15:51:43;4.57;;;2.55;;
46777;SDS011;32536;47.128;8.746;2022-12-07T15:54:21;5.45;;;3.15;;
46777;SDS011;32536;47.128;8.746;2022-12-07T15:56:51;6.03;;;2.65;;
46777;SDS011;32536;47.128;8.746;2022-12-07T15:59:18;4.20;;;2.72;;
46777;SDS011;32536;47.128;8.746;2022-12-07T16:01:45;5.57;;;2.90;;
46777;SDS011;32536;47.128;8.746;2022-12-07T16:04:12;5.15;;;2.17;;
46777;SDS011;32536;47.128;8.746;2022-12-07T16:06:40;4.28;;;2.88;;
46777;SDS011;32536;47.128;8.746;2022-12-07T16:09:07;5.05;;;3.15;;
46777;SDS011;32536;47.128;8.746;2022-12-07T16:11:34;4.57;;;2.90;;
46777;SDS011;32536;47.128;8.746;2022-12-07T16:14:01;4.95;;;3.03;;
46777;SDS011;32536;47.128;8.746;2022-12-07T16:16:28;4.35;;;1.80;;
46777;SDS011;32536;47.128;8.746;2022-12-07T16:18:55;4.55;;;3.00;;
46777;SDS011;32536;47.128;8.746;2022-12-07T16:21:22;4.90;;;2.70;;
46777;SDS011;32536;47.128;8.746;2022-12-07T16:23:49;4.10;;;2.83;;
46777;SDS011;32536;47.128;8.746;2022-12-07T16:26:17;3.22;;;1.30;;
46777;SDS011;32536;47.128;8.746;2022-12-07T16:28:49;4.53;;;2.95;;
46777;SDS011;32536;47.128;8.746;2022-12-07T16:31:19;3.92;;;2.20;;
46777;SDS011;32536;47.128;8.746;2022-12-07T16:33:50;3.20;;;2.63;;
46777;SDS011;32536;47.128;8.746;2022-12-07T16:36:21;3.67;;;1.67;;
46777;SDS011;32536;47.128;8.746;2022-12-07T16:38:50;4.10;;;1.73;;
46777;SDS011;32536;47.128;8.746;2022-12-07T16:41:17;3.97;;;1.58;;
46777;SDS011;32536;47.128;8.746;2022-12-07T16:43:44;5.00;;;1.95;;
46777;SDS011;32536;47.128;8.746;2022-12-07T16:46:11;4.68;;;1.55;;
46777;SDS011;32536;47.128;8.746;2022-12-07T16:48:39;3.83;;;2.83;;
46777;SDS011;32536;47.128;8.746;2022-12-07T16:51:06;5.80;;;2.45;;
46777;SDS011;32536;47.128;8.746;2022-12-07T16:53:36;4.68;;;2.58;;
46777;SDS011;32536;47.128;8.746;2022-12-07T16:56:09;5.18;;;2.63;;
46777;SDS011;32536;47.128;8.746;2022-12-07T16:58:38;2.63;;;1.33;;
46777;SDS011;32536;47.128;8.746;2022-12-07T17:01:12;5.32;;;3.88;;
46777;SDS011;32536;47.128;8.746;2022-12-07T17:09:06;4.22;;;3.58;;
46777;SDS011;32536;47.128;8.746;2022-12-07T17:11:35;5.07;;;3.15;;
46777;SDS011;32536;47.128;8.746;2022-12-07T17:14:02;4.18;;;1.50;;
46777;SDS011;32536;47.128;8.746;2022-12-07T17:16:47;2.90;;;1.95;;
46777;SDS011;32536;47.128;8.746;2022-12-07T17:19:14;4.35;;;2.00;;
46777;SDS011;32536;47.128;8.746;2022-12-07T17:21:42;3.92;;;1.83;;
46777;SDS011;32536;47.128;8.746;2022-12-07T17:24:10;4.47;;;2.35;;
46777;SDS011;32536;47.128;8.746;2022-12-07T17:26:42;3.38;;;2.38;;
46777;SDS011;32536;47.128;8.746;2022-12-07T17:29:11;3.72;;;3.22;;
46777;SDS011;32536;47.128;8.746;2022-12-07T17:31:41;2.72;;;1.40;;
46777;SDS011;32536;47.128;8.746;2022-12-07T17:34:11;3.90;;;2.65;;
46777;SDS011;32536;47.128;8.746;2022-12-07T17:36:40;4.20;;;2.00;;
46777;SDS011;32536;47.128;8.746;2022-12-07T17:39:11;4.65;;;2.78;;
46777;SDS011;32536;47.128;8.746;2022-12-07T17:41:41;3.75;;;1.95;;
46777;SDS011;32536;47.128;8.746;2022-12-07T17:44:26;3.80;;;1.73;;
46777;SDS011;32536;47.128;8.746;2022-12-07T17:46:54;4.03;;;2.10;;
46777;SDS011;32536;47.128;8.746;2022-12-07T17:49:25;3.75;;;2.08;;
46777;SDS011;32536;47.128;8.746;2022-12-07T17:51:52;4.88;;;3.03;;
46777;SDS011;32536;47.128;8.746;2022-12-07T17:54:38;3.42;;;1.77;;